createdAt,value
2018-10-19T00:00:05.870Z,26.62
2018-10-19T00:02:33.314Z,25.93
2018-10-19T00:05:00.812Z,26.00
2018-10-19T00:07:28.202Z,27.40
2018-10-19T00:09:55.634Z,25.23
2018-10-19T00:12:23.087Z,25.67
2018-10-19T00:14:50.541Z,26.05
2018-10-19T00:17:17.975Z,26.37
2018-10-19T00:19:45.423Z,24.87
2018-10-19T00:22:12.869Z,25.17
2018-10-19T00:24:40.319Z,26.68
2018-10-19T00:27:07.776Z,24.90
2018-10-19T00:29:35.207Z,27.07
2018-10-19T00:32:02.630Z,26.17
2018-10-19T00:34:30.095Z,24.90
2018-10-19T00:36:57.538Z,26.77
2018-10-19T00:39:25.019Z,26.20
2018-10-19T00:41:52.450Z,24.60
2018-10-19T00:44:19.901Z,23.07
2018-10-19T00:46:47.358Z,25.77
2018-10-19T00:49:14.965Z,25.07
2018-10-19T00:51:42.445Z,25.00
2018-10-19T00:54:10.020Z,25.97
2018-10-19T00:56:37.504Z,25.80
2018-10-19T00:59:05.011Z,25.97
2018-10-19T01:01:32.434Z,26.37
2018-10-19T01:03:59.910Z,26.63
2018-10-19T01:06:27.346Z,26.75
2018-10-19T01:08:54.834Z,26.27
2018-10-19T01:11:22.257Z,24.47
2018-10-19T01:13:49.705Z,23.57
2018-10-19T01:16:17.143Z,23.83
2018-10-19T01:18:44.581Z,24.17
2018-10-19T01:21:12.070Z,22.83
2018-10-19T01:23:39.465Z,20.47
2018-10-19T01:26:07.118Z,21.62
2018-10-19T01:28:34.530Z,22.83
2018-10-19T01:31:02.025Z,22.58
2018-10-19T01:33:29.466Z,23.77
2018-10-19T01:35:57.027Z,23.57
2018-10-19T01:38:24.499Z,21.90
2018-10-19T01:40:51.959Z,22.40
2018-10-19T01:43:19.445Z,21.20
2018-10-19T01:45:52.273Z,23.27
2018-10-19T01:48:19.778Z,22.03
2018-10-19T01:50:47.218Z,23.00
2018-10-19T01:53:14.731Z,23.33
2018-10-19T01:55:42.151Z,23.52
2018-10-19T01:58:09.586Z,21.57
2018-10-19T02:00:37.034Z,21.23
2018-10-19T02:03:04.513Z,20.77
2018-10-19T02:05:31.963Z,19.93
2018-10-19T02:07:59.501Z,19.40
2018-10-19T02:10:27.035Z,20.92
2018-10-19T02:12:54.490Z,19.13
2018-10-19T02:15:22.006Z,18.93
2018-10-19T02:17:49.452Z,18.63
2018-10-19T02:20:16.930Z,19.17
2018-10-19T02:22:44.371Z,18.15
2018-10-19T02:25:11.813Z,18.17
2018-10-19T02:27:39.276Z,18.00
2018-10-19T02:30:06.716Z,18.27
2018-10-19T02:32:34.199Z,16.75
2018-10-19T02:35:01.737Z,15.77
2018-10-19T02:37:29.434Z,13.90
2018-10-19T02:39:56.857Z,13.97
2018-10-19T02:42:24.293Z,13.13
2018-10-19T02:44:51.766Z,11.70
2018-10-19T02:47:19.218Z,12.17
2018-10-19T02:49:46.671Z,11.48
2018-10-19T02:52:14.102Z,10.93
2018-10-19T02:54:41.554Z,11.13
2018-10-19T02:57:09.044Z,11.03
2018-10-19T02:59:36.446Z,10.45
2018-10-19T03:02:03.887Z,9.43
2018-10-19T03:04:31.325Z,10.72
2018-10-19T03:06:58.768Z,8.57
2018-10-19T03:09:26.228Z,10.40
2018-10-19T03:11:53.657Z,10.47
2018-10-19T03:14:21.198Z,9.88
2018-10-19T03:16:48.652Z,8.97
2018-10-19T03:19:16.098Z,9.45
2018-10-19T03:21:43.811Z,9.27
2018-10-19T03:24:11.274Z,9.00
2018-10-19T03:26:38.782Z,9.23
2018-10-19T03:29:06.324Z,8.17
2018-10-19T03:31:33.710Z,8.57
2018-10-19T03:34:01.151Z,7.27
2018-10-19T03:36:28.594Z,7.80
2018-10-19T03:38:56.125Z,8.10
2018-10-19T03:41:23.513Z,6.40
2018-10-19T03:43:50.968Z,6.70
2018-10-19T03:46:18.413Z,6.58
2018-10-19T03:48:45.989Z,7.60
2018-10-19T03:51:13.633Z,7.63
2018-10-19T03:53:41.038Z,6.87
2018-10-19T03:56:08.478Z,7.63
2018-10-19T03:58:35.918Z,7.43
2018-10-19T04:01:03.368Z,8.30
2018-10-19T04:03:30.864Z,7.35
2018-10-19T04:05:58.277Z,7.03
2018-10-19T04:08:25.743Z,7.53
2018-10-19T04:10:53.185Z,7.63
2018-10-19T04:13:20.618Z,7.50
2018-10-19T04:15:48.053Z,6.93
2018-10-19T04:18:15.517Z,6.55
2018-10-19T04:20:43.085Z,7.90
2018-10-19T04:23:10.663Z,7.05
2018-10-19T04:25:39.118Z,7.13
2018-10-19T04:28:06.570Z,7.13
2018-10-19T04:30:34.920Z,8.60
2018-10-19T04:33:02.933Z,9.20
2018-10-19T04:35:30.420Z,8.80
2018-10-19T04:37:57.819Z,9.25
2018-10-19T04:40:25.327Z,9.07
2018-10-19T04:42:52.704Z,8.30
2018-10-19T04:45:20.389Z,10.00
2018-10-19T04:47:47.879Z,8.80
2018-10-19T04:50:15.299Z,13.50
2018-10-19T04:52:42.797Z,12.97
2018-10-19T04:55:10.954Z,14.95
2018-10-19T04:57:38.398Z,16.30
2018-10-19T05:00:05.858Z,17.53
2018-10-19T05:02:33.355Z,17.37
2018-10-19T05:05:00.760Z,17.00
2018-10-19T05:07:28.194Z,20.57
2018-10-19T05:09:55.633Z,18.87
2018-10-19T05:12:23.127Z,20.37
2018-10-19T05:14:50.554Z,19.90
2018-10-19T05:17:18.005Z,20.10
2018-10-19T05:19:45.453Z,21.20
2018-10-19T05:22:12.898Z,20.83
2018-10-19T05:24:40.376Z,20.72
2018-10-19T05:27:07.784Z,21.20
2018-10-19T05:29:35.226Z,21.17
2018-10-19T05:32:02.866Z,20.67
2018-10-19T05:34:30.240Z,21.87
2018-10-19T05:36:57.684Z,21.20
2018-10-19T05:39:25.130Z,22.30
2018-10-19T05:41:52.570Z,22.10
2018-10-19T05:44:20.018Z,20.47
2018-10-19T05:46:47.463Z,21.30
2018-10-19T05:49:15.670Z,21.15
2018-10-19T05:51:43.167Z,20.90
2018-10-19T05:54:10.632Z,22.03
2018-10-19T05:56:38.074Z,20.07
2018-10-19T05:59:05.540Z,20.95
2018-10-19T06:01:32.970Z,21.60
2018-10-19T06:04:00.406Z,21.57
2018-10-19T06:06:27.901Z,20.27
2018-10-19T06:08:55.378Z,20.68
2018-10-19T06:11:22.847Z,19.13
2018-10-19T06:13:50.307Z,20.65
2018-10-19T06:16:17.746Z,21.80
2018-10-19T06:18:45.186Z,21.43
2018-10-19T06:21:12.712Z,21.00
2018-10-19T06:23:40.086Z,21.25
2018-10-19T06:26:07.612Z,21.53
2018-10-19T06:28:35.001Z,21.60
2018-10-19T06:31:02.598Z,21.33
2018-10-19T06:33:30.411Z,20.20
2018-10-19T06:35:57.846Z,21.80
2018-10-19T06:38:25.298Z,19.40
2018-10-19T06:40:52.860Z,21.52
2018-10-19T06:43:20.294Z,20.13
2018-10-19T06:45:47.742Z,20.05
2018-10-19T06:48:15.285Z,21.60
2018-10-19T06:50:42.746Z,20.45
2018-10-19T06:53:10.245Z,21.03
2018-10-19T06:55:37.644Z,20.65
2018-10-19T06:58:05.249Z,21.13
2018-10-19T07:00:32.820Z,21.33
2018-10-19T07:03:00.278Z,21.27
2018-10-19T07:05:27.738Z,21.60
2018-10-19T07:07:55.212Z,21.67
2018-10-19T07:10:22.626Z,20.17
2018-10-19T07:12:50.086Z,20.17
2018-10-19T07:15:17.514Z,20.60
2018-10-19T07:17:44.957Z,20.17
2018-10-19T07:20:12.448Z,20.03
2018-10-19T07:22:40.136Z,20.97
2018-10-19T07:25:07.821Z,22.13
2018-10-19T07:27:35.342Z,21.83
2018-10-19T07:30:02.786Z,20.02
2018-10-19T07:32:30.486Z,20.13
2018-10-19T07:34:57.966Z,21.40
2018-10-19T07:37:25.474Z,22.05
2018-10-19T07:39:52.926Z,21.67
2018-10-19T07:42:20.438Z,21.10
2018-10-19T07:44:47.990Z,21.03
2018-10-19T07:47:15.657Z,20.57
2018-10-19T07:49:42.971Z,19.50
2018-10-19T07:52:10.418Z,18.03
2018-10-19T07:54:37.980Z,17.90
2018-10-19T07:57:05.321Z,17.47
2018-10-19T07:59:33.053Z,16.37
2018-10-19T08:02:00.524Z,15.93
2018-10-19T08:04:27.946Z,17.43
2018-10-19T08:06:55.806Z,16.07
2018-10-19T08:09:23.250Z,15.60
2018-10-19T08:11:50.697Z,15.87
2018-10-19T08:14:18.141Z,15.43
2018-10-19T08:16:45.622Z,15.97
2018-10-19T08:19:13.101Z,16.37
2018-10-19T08:21:40.550Z,16.40
2018-10-19T08:24:08.007Z,16.05
2018-10-19T08:26:35.453Z,15.80
2018-10-19T08:29:02.907Z,16.25
2018-10-19T08:31:30.347Z,17.33
2018-10-19T08:33:57.798Z,15.35
2018-10-19T08:36:25.251Z,15.27
2018-10-19T08:38:52.698Z,15.50
2018-10-19T08:41:20.352Z,16.07
2018-10-19T08:43:47.679Z,15.98
2018-10-19T08:46:20.554Z,16.17
2018-10-19T08:48:48.034Z,16.50
2018-10-19T08:51:15.486Z,14.90
2018-10-19T08:53:42.920Z,18.30
2018-10-19T08:56:10.373Z,78.22
2018-10-19T08:58:37.809Z,24.93
2018-10-19T09:01:05.260Z,18.20
2018-10-19T09:03:32.769Z,16.27
2018-10-19T09:06:00.251Z,15.20
2018-10-19T09:08:27.676Z,15.60
2018-10-19T09:10:55.195Z,14.70
2018-10-19T09:13:22.574Z,15.67
2018-10-19T09:15:50.022Z,12.90
2018-10-19T09:18:17.492Z,13.60
2018-10-19T09:20:45.148Z,12.35
2018-10-19T09:23:12.631Z,12.63
2018-10-19T09:25:40.050Z,10.63
2018-10-19T09:28:07.500Z,11.40
2018-10-19T09:30:34.946Z,11.23
2018-10-19T09:33:02.462Z,10.60
2018-10-19T09:35:29.972Z,10.60
2018-10-19T09:37:57.369Z,10.82
2018-10-19T09:40:24.802Z,10.80
2018-10-19T09:42:52.318Z,10.50
2018-10-19T09:45:19.734Z,10.70
2018-10-19T09:47:47.186Z,10.58
2018-10-19T09:50:14.618Z,12.77
2018-10-19T09:52:42.082Z,10.20
2018-10-19T09:55:09.841Z,10.10
2018-10-19T09:57:37.242Z,10.17
2018-10-19T10:00:04.701Z,9.30
2018-10-19T10:02:32.154Z,10.50
2018-10-19T10:04:59.652Z,10.50
2018-10-19T10:07:27.075Z,10.53
2018-10-19T10:09:54.510Z,10.58
2018-10-19T10:12:21.949Z,11.00
2018-10-19T10:14:49.460Z,9.18
2018-10-19T10:17:16.855Z,8.87
2018-10-19T10:19:44.327Z,9.78
2018-10-19T10:22:11.842Z,9.83
2018-10-19T10:24:39.237Z,10.28
2018-10-19T10:27:06.650Z,12.33
2018-10-19T10:29:34.098Z,10.48
2018-10-19T10:32:01.561Z,11.23
2018-10-19T10:34:29.112Z,11.00
2018-10-19T10:36:56.611Z,11.03
2018-10-19T10:39:24.151Z,11.88
2018-10-19T10:41:51.510Z,11.10
2018-10-19T10:44:19.013Z,12.50
2018-10-19T10:46:46.467Z,11.93
2018-10-19T10:49:13.973Z,10.68
2018-10-19T10:51:41.341Z,11.67
2018-10-19T10:54:08.812Z,11.28
2018-10-19T10:56:36.424Z,12.20
2018-10-19T10:59:03.882Z,11.53
2018-10-19T11:01:31.330Z,11.70
2018-10-19T11:03:58.811Z,12.30
2018-10-19T11:06:26.246Z,11.40
2018-10-19T11:08:53.704Z,11.57
2018-10-19T11:11:21.202Z,11.10
2018-10-19T11:13:48.645Z,13.60
2018-10-19T11:16:16.101Z,11.15
2018-10-19T11:18:43.546Z,11.30
2018-10-19T11:21:11.008Z,12.07
2018-10-19T11:23:38.482Z,12.13
2018-10-19T11:26:06.223Z,10.70
2018-10-19T11:28:33.667Z,13.23
2018-10-19T11:31:01.756Z,11.53
2018-10-19T11:33:29.190Z,13.50
2018-10-19T11:35:56.657Z,11.93
2018-10-19T11:38:24.408Z,12.20
2018-10-19T11:40:51.844Z,13.43
2018-10-19T11:43:19.291Z,12.03
2018-10-19T11:45:46.743Z,12.10
2018-10-19T11:48:14.175Z,12.68
2018-10-19T11:50:41.641Z,11.87
2018-10-19T11:53:09.225Z,12.10
2018-10-19T11:55:36.672Z,13.03
2018-10-19T11:58:04.257Z,12.93
2018-10-19T12:00:31.645Z,13.37
2018-10-19T12:02:59.083Z,12.60
2018-10-19T12:05:26.538Z,12.37
2018-10-19T12:07:54.030Z,11.63
2018-10-19T12:10:22.518Z,12.45
2018-10-19T12:12:49.954Z,12.80
2018-10-19T12:15:17.875Z,13.40
2018-10-19T12:17:45.910Z,14.47
2018-10-19T12:20:16.338Z,13.70
2018-10-19T12:22:43.777Z,13.40
2018-10-19T12:25:12.261Z,14.87
2018-10-19T12:27:40.022Z,13.10
2018-10-19T12:30:07.490Z,12.83
2018-10-19T12:32:34.956Z,11.93
2018-10-19T12:35:02.421Z,10.87
2018-10-19T12:37:29.863Z,12.30
2018-10-19T12:39:57.301Z,11.13
2018-10-19T12:42:24.801Z,11.50
2018-10-19T12:44:52.345Z,12.00
2018-10-19T12:47:19.745Z,12.17
2018-10-19T12:49:47.144Z,11.00
2018-10-19T12:52:14.598Z,11.70
2018-10-19T12:54:42.033Z,11.37
2018-10-19T12:57:09.711Z,11.10
2018-10-19T12:59:37.091Z,14.23
2018-10-19T13:02:04.633Z,11.55
2018-10-19T13:04:32.727Z,11.30
2018-10-19T13:07:00.234Z,13.30
2018-10-19T13:09:27.619Z,14.27
2018-10-19T13:11:55.099Z,13.33
2018-10-19T13:14:22.552Z,14.87
2018-10-19T13:16:49.994Z,11.57
2018-10-19T13:19:17.448Z,12.30
2018-10-19T13:21:45.035Z,15.03
2018-10-19T13:24:12.499Z,15.00
2018-10-19T13:26:39.908Z,16.90
2018-10-19T13:29:07.535Z,17.00
2018-10-19T13:31:34.972Z,19.60
2018-10-19T13:34:02.509Z,19.33
2018-10-19T13:36:29.941Z,18.70
2018-10-19T13:38:57.469Z,22.13
2018-10-19T13:41:24.969Z,22.43
2018-10-19T13:43:52.449Z,20.62
2018-10-19T13:46:19.881Z,19.80
2018-10-19T13:48:47.330Z,16.35
2018-10-19T13:51:14.967Z,16.27
2018-10-19T13:53:42.351Z,15.35
2018-10-19T13:56:09.790Z,15.57
2018-10-19T13:58:37.231Z,15.05
2018-10-19T14:01:04.709Z,15.83
2018-10-19T14:03:32.209Z,15.68
2018-10-19T14:05:59.598Z,15.13
2018-10-19T14:08:27.033Z,15.73
2018-10-19T14:10:54.483Z,15.50
2018-10-19T14:13:21.909Z,15.32
2018-10-19T14:15:49.352Z,14.67
2018-10-19T14:18:16.789Z,15.32
2018-10-19T14:20:44.227Z,15.37
2018-10-19T14:23:11.742Z,15.70
2018-10-19T14:25:39.151Z,16.03
2018-10-19T14:28:06.615Z,17.10
2018-10-19T14:30:34.050Z,18.70
2018-10-19T14:33:01.569Z,16.80
2018-10-19T14:35:28.939Z,17.67
2018-10-19T14:37:56.387Z,16.50
2018-10-19T14:40:23.834Z,17.33
2018-10-19T14:42:51.274Z,17.80
2018-10-19T14:45:18.885Z,15.57
2018-10-19T14:47:47.153Z,15.20
2018-10-19T14:50:15.854Z,16.03
2018-10-19T14:52:43.330Z,14.73
2018-10-19T14:55:12.887Z,14.10
2018-10-19T14:57:40.326Z,15.30
2018-10-19T15:00:08.018Z,14.13
2018-10-19T15:02:35.642Z,15.23
2018-10-19T15:05:03.362Z,14.73
2018-10-19T15:07:30.763Z,15.28
2018-10-19T15:09:58.416Z,14.93
2018-10-19T15:12:25.765Z,13.90
2018-10-19T15:14:53.202Z,14.47
2018-10-19T15:17:20.637Z,15.23
2018-10-19T15:19:48.986Z,13.60
2018-10-19T15:22:16.422Z,13.37
2018-10-19T15:24:44.054Z,14.67
2018-10-19T15:27:11.592Z,13.77
2018-10-19T15:29:39.078Z,12.03
2018-10-19T15:32:06.434Z,13.63
2018-10-19T15:34:33.941Z,13.80
2018-10-19T15:37:01.390Z,10.73
2018-10-19T15:39:28.823Z,13.17
2018-10-19T15:41:56.343Z,12.87
2018-10-19T15:44:23.745Z,14.73
2018-10-19T15:46:51.214Z,14.00
2018-10-19T15:49:18.986Z,14.30
2018-10-19T15:51:46.422Z,13.07
2018-10-19T15:54:13.913Z,12.80
2018-10-19T15:56:41.326Z,13.63
2018-10-19T15:59:08.753Z,13.57
2018-10-19T16:01:36.198Z,13.80
2018-10-19T16:04:03.810Z,13.90
2018-10-19T16:06:31.250Z,12.80
2018-10-19T16:08:58.720Z,13.70
2018-10-19T16:11:26.178Z,13.93
2018-10-19T16:13:53.618Z,14.63
2018-10-19T16:16:21.097Z,14.23
2018-10-19T16:18:48.592Z,13.70
2018-10-19T16:21:16.075Z,15.20
2018-10-19T16:23:43.474Z,14.33
2018-10-19T16:26:10.921Z,13.03
2018-10-19T16:28:38.386Z,12.67
2018-10-19T16:31:05.832Z,14.73
2018-10-19T16:33:33.274Z,14.87
2018-10-19T16:36:00.974Z,15.50
2018-10-19T16:38:28.395Z,15.03
2018-10-19T16:40:55.873Z,14.17
2018-10-19T16:43:23.310Z,13.63
2018-10-19T16:45:50.769Z,13.80
2018-10-19T16:48:18.218Z,14.00
2018-10-19T16:50:45.669Z,15.08
2018-10-19T16:53:13.706Z,14.00
2018-10-19T16:55:41.814Z,12.93
2018-10-19T16:58:09.309Z,13.57
2018-10-19T17:00:36.686Z,13.83
2018-10-19T17:03:04.275Z,14.47
2018-10-19T17:05:31.683Z,14.13
2018-10-19T17:07:59.118Z,15.05
2018-10-19T17:10:26.554Z,15.07
2018-10-19T17:12:54.207Z,14.00
2018-10-19T17:15:21.498Z,15.70
2018-10-19T17:17:48.974Z,15.60
2018-10-19T17:20:16.407Z,14.13
2018-10-19T17:22:43.853Z,14.33
2018-10-19T17:25:11.929Z,14.13
2018-10-19T17:27:39.718Z,13.90
2018-10-19T17:30:07.387Z,14.10
2018-10-19T17:32:34.735Z,14.63
2018-10-19T17:35:02.205Z,14.57
2018-10-19T17:37:29.643Z,14.25
2018-10-19T17:39:57.024Z,13.17
2018-10-19T17:42:24.467Z,14.47
2018-10-19T17:44:51.902Z,13.83
2018-10-19T17:47:19.346Z,13.60
2018-10-19T17:49:46.799Z,15.73
2018-10-19T17:52:14.342Z,14.60
2018-10-19T17:54:41.770Z,14.90
2018-10-19T17:57:09.361Z,14.57
2018-10-19T17:59:36.771Z,14.67
2018-10-19T18:02:04.214Z,14.05
2018-10-19T18:04:31.666Z,14.33
2018-10-19T18:06:59.090Z,14.90
2018-10-19T18:09:26.538Z,15.40
2018-10-19T18:11:54.142Z,14.97
2018-10-19T18:14:21.583Z,15.53
2018-10-19T18:16:49.069Z,15.93
2018-10-19T18:19:16.502Z,14.67
2018-10-19T18:21:44.176Z,15.30
2018-10-19T18:24:11.502Z,16.00
2018-10-19T18:26:38.954Z,15.90
2018-10-19T18:29:06.559Z,15.83
2018-10-19T18:31:33.999Z,15.77
2018-10-19T18:34:01.442Z,15.53
2018-10-19T18:36:28.879Z,14.73
2018-10-19T18:38:56.470Z,14.83
2018-10-19T18:41:23.976Z,15.13
2018-10-19T18:43:51.371Z,15.07
2018-10-19T18:46:18.806Z,15.57
2018-10-19T18:48:46.335Z,15.78
2018-10-19T18:51:13.782Z,14.50
2018-10-19T18:53:41.276Z,14.30
2018-10-19T18:56:08.861Z,15.37
2018-10-19T18:58:36.258Z,15.60
2018-10-19T19:01:03.735Z,15.63
2018-10-19T19:03:31.173Z,15.50
2018-10-19T19:05:58.665Z,15.87
2018-10-19T19:08:26.218Z,14.47
2018-10-19T19:10:53.745Z,17.43
2018-10-19T19:13:26.545Z,15.57
2018-10-19T19:15:54.027Z,15.07
2018-10-19T19:18:21.477Z,16.07
2018-10-19T19:20:48.918Z,15.97
2018-10-19T19:23:16.427Z,15.10
2018-10-19T19:25:49.230Z,15.47
2018-10-19T19:28:16.676Z,14.57
2018-10-19T19:30:44.131Z,15.33
2018-10-19T19:33:17.030Z,16.00
2018-10-19T19:35:44.466Z,15.30
2018-10-19T19:38:11.955Z,13.87
2018-10-19T19:40:44.858Z,14.90
2018-10-19T19:43:12.309Z,14.20
2018-10-19T19:45:39.918Z,14.87
2018-10-19T19:48:12.706Z,14.97
2018-10-19T19:50:40.217Z,14.40
2018-10-19T19:53:07.676Z,14.95
2018-10-19T19:55:35.236Z,15.37
2018-10-19T19:58:02.708Z,16.45
2018-10-19T20:00:30.130Z,15.03
2018-10-19T20:02:57.725Z,15.87
2018-10-19T20:05:25.166Z,15.78
2018-10-19T20:07:52.655Z,14.70
2018-10-19T20:10:20.137Z,15.93
2018-10-19T20:12:47.601Z,14.93
2018-10-19T20:15:15.038Z,14.93
2018-10-19T20:17:42.590Z,15.03
2018-10-19T20:20:10.711Z,15.13
2018-10-19T20:22:38.363Z,14.50
2018-10-19T20:25:05.797Z,13.38
2018-10-19T20:27:33.238Z,14.83
2018-10-19T20:30:00.674Z,13.93
2018-10-19T20:32:28.295Z,14.57
2018-10-19T20:34:55.925Z,14.60
2018-10-19T20:37:23.324Z,14.13
2018-10-19T20:39:50.819Z,14.37
2018-10-19T20:42:18.450Z,14.90
2018-10-19T20:44:45.907Z,14.30
2018-10-19T20:47:13.609Z,14.50
2018-10-19T20:49:41.016Z,14.15
2018-10-19T20:52:08.471Z,15.13
2018-10-19T20:54:36.148Z,14.37
2018-10-19T20:57:03.553Z,15.00
2018-10-19T20:59:31.079Z,15.00
2018-10-19T21:01:58.554Z,14.93
2018-10-19T21:04:25.951Z,14.10
2018-10-19T21:06:53.550Z,15.20
2018-10-19T21:09:21.177Z,14.50
2018-10-19T21:11:48.607Z,14.83
2018-10-19T21:14:16.094Z,14.98
2018-10-19T21:16:43.477Z,15.00
2018-10-19T21:19:11.144Z,14.87
2018-10-19T21:21:38.606Z,15.77
2018-10-19T21:24:06.061Z,14.23
2018-10-19T21:26:33.502Z,15.27
2018-10-19T21:29:01.067Z,15.33
2018-10-19T21:31:28.479Z,15.87
2018-10-19T21:33:55.938Z,14.60
2018-10-19T21:36:23.458Z,14.60
2018-10-19T21:38:50.830Z,14.77
2018-10-19T21:41:18.262Z,14.37
2018-10-19T21:43:45.852Z,15.17
2018-10-19T21:46:13.387Z,14.63
2018-10-19T21:48:41.091Z,14.93
2018-10-19T21:51:08.542Z,14.87
2018-10-19T21:53:36.047Z,16.10
2018-10-19T21:56:03.514Z,14.57
2018-10-19T21:58:30.927Z,14.33
2018-10-19T22:00:58.362Z,14.58
2018-10-19T22:03:25.810Z,15.77
2018-10-19T22:05:53.250Z,15.47
2018-10-19T22:08:20.729Z,14.18
2018-10-19T22:10:48.170Z,14.97
2018-10-19T22:13:15.655Z,14.23
2018-10-19T22:15:43.081Z,14.53
2018-10-19T22:18:10.538Z,14.53
2018-10-19T22:20:37.976Z,14.10
2018-10-19T22:23:05.492Z,14.40
2018-10-19T22:25:32.889Z,14.60
2018-10-19T22:28:00.365Z,14.73
2018-10-19T22:30:28.016Z,14.50
2018-10-19T22:32:55.417Z,15.80
2018-10-19T22:35:22.862Z,14.60
2018-10-19T22:37:50.297Z,14.70
2018-10-19T22:40:17.953Z,14.03
2018-10-19T22:42:45.430Z,14.03
2018-10-19T22:45:12.879Z,14.60
2018-10-19T22:47:40.326Z,14.10
2018-10-19T22:50:07.770Z,14.07
2018-10-19T22:52:35.205Z,15.93
2018-10-19T22:55:02.677Z,15.47
2018-10-19T22:57:30.277Z,15.40
2018-10-19T22:59:57.925Z,16.47
2018-10-19T23:02:25.426Z,15.23
2018-10-19T23:04:52.883Z,13.77
2018-10-19T23:07:20.330Z,15.15
2018-10-19T23:09:48.019Z,14.20
2018-10-19T23:12:15.397Z,14.68
2018-10-19T23:14:42.833Z,15.83
2018-10-19T23:17:10.319Z,15.20
2018-10-19T23:19:37.742Z,15.83
2018-10-19T23:22:05.180Z,15.40
2018-10-19T23:24:32.713Z,14.00
2018-10-19T23:27:00.166Z,14.83
2018-10-19T23:29:27.601Z,15.47
2018-10-19T23:31:55.040Z,15.00
2018-10-19T23:34:22.523Z,16.07
2018-10-19T23:36:49.962Z,14.10
2018-10-19T23:39:17.496Z,14.40
2018-10-19T23:41:45.002Z,15.57
2018-10-19T23:44:12.426Z,14.17
2018-10-19T23:46:39.866Z,14.50
2018-10-19T23:49:07.831Z,15.50
2018-10-19T23:51:35.268Z,14.85
2018-10-19T23:54:02.706Z,15.47
2018-10-19T23:56:30.280Z,14.13
2018-10-19T23:58:57.865Z,14.87
